Daufuskie Island, SC (29915)

11:57 PM EDT on September 25, 2016 (GMT -0400)
Baynard Cove | | Change Station

Elev 23 ft 32.12 °N, 80.82 °W | Updated 5 seconds ago

Clear
Clear
78.8 °F
Feels Like 82 °F
N
0.0
Wind Variable Wind from WSW
Gusts 1.0 mph

Today
High -- | Low -- °F
--% Chance of Precip.
Yesterday
High -- | Low -- °F
Precip. -- in
Pressure 30.05 in
Visibility 9.0 miles
Clouds Clear
Heat Index 82 °F
Dew Point 75 °F
Humidity 87%
Rainfall 0.02 in
Snow Depth Not available.
7:13 AM 7:15 PM
Waning Crescent, 22% visible
METAR KHXD 260355Z AUTO 06007KT 040V110 9SM CLR 27/23 A3005 RMK AO2
Pressure 30.05 in
Visibility 9.0 miles
Clouds Clear
Heat Index 82 °F
Dew Point 75 °F
Humidity 87%
Rainfall 0.02 in
Snow Depth Not available.
7:13 AM 7:15 PM
Waning Crescent, 22% visible
METAR KHXD 260355Z AUTO 06007KT 040V110 9SM CLR 27/23 A3005 RMK AO2

10-Day Weather Forecast

Almanac

Astronomy

Sep. 25, 2016 Rise Set
Actual Time
Civil Twilight
Nautical Twilight
Astronomical Twilight
Moon
Length of Visible Light
Length of Day
Tomorrow will be .
, % of the Moon is Illuminated

Today's Extremes

State Highs State Lows

Community

WunderPhotos

Upload Photos

1,941,837 photos uploaded!

WunderBlog® & News

Nearby

Air Quality

  Air Quality AQ Index Pollutant
Not available.

Snow Depth

Station Depth Elevation

Earthquake Activity

City Distance Mag. Time & Date
Minimum magnitude displayed is 2.5.

Coastal Water Temperatures

Place Temperature

Stations

Nearby Weather Stations

Station Location Temp. Windchill Dew Point Humidity Wind Precip. Elev Updated Type
                   

Watches & Warnings

There are currently no watches in effect.